EDLPEDDW

Guest
Details From EDLP - Paderborn Lippstadt
To EDDW - Bremen
Flight Number -
Tags generated
Created
Modified
Stats Distance 86 nm / 160 km
Max Altitude 7,900 ft / 2,408 m
Waypoints 3
Social Downloads 2
Likes 0
Share VATSIM

Download

Looking for another format? Having issues loading an existing format? Contact us
Advertisement - Login to hide

Notes

Basic altitude profile: - Ascent Rate: 2500ft/min - Ascent Speed: 250kts - Cruise Altitude: 35000ft - Cruise Speed: 420kts - Descent Rate: 1500ft/min - Descent Speed: 250kts Options: - Use NATs: yes - Use PACOTS: yes - Use low airways: yes - Use high airways: yes

Route

EDLP DENOL EDDW

ID Type Via Altitude Latitude Longitude Leg Dist Tot Dist Heading (true) Name
O EDLP APT - 0 ft / 0 m 51.61417˚ 8.61634˚ - 0 nm - Paderborn Lippstadt
DENOL FIX - 7,900 ft / 2,408 m 51.98333˚ 8.67278˚ 22 nm 22 nm 5° / 5° -
O EDDW APT - 0 ft / 0 m 53.04571˚ 8.78900˚ 63 nm 86 nm 4° / 4° Bremen

Altitude Profile

Advertisement - Login to hide

EDLP

Details ICAO EDLP (PAD)
Name Paderborn Lippstadt
Region Germany - Civil
Timezone Europe/Berlin (UTC+2.0)
Stats Elevation 699 ft / 213 m (AMSL)
Location 51.614166° 8.616336°
Runways 1
Magnetic Variation 2.416° E

METAR

EDLP 220950Z 10008KT CAVOK 22/11 Q1013

Decode

TAF

TAF EDLP 220500Z 2206/2306 11006KT CAVOK PROB30 TEMPO 2215/2219 06015G25KT 4000 TSRA BKN040CB BECMG 2218/2221 VRB03KT

Decode

Departure Runways

ID Width Length Bearing (true) Bearing (mag) Surface Threshold Offset Overrun Length
06 148 ft / 45 m 7,136 ft / 2,175 m 57.28° 54.86° Asphalt 0 ft / 0 m 1,066 ft / 325 m
24 148 ft / 45 m 7,136 ft / 2,175 m 237.30° 234.88° Asphalt 0 ft / 0 m 397 ft / 121 m

EDDW

Details ICAO EDDW (BRE)
Name Bremen
Region Germany - Civil
Timezone Europe/Berlin (UTC+2.0)
Stats Elevation 14 ft / 4 m (AMSL)
Location 53.045715° 8.789003°
Runways 2
Magnetic Variation 2.465° E

METAR

EDDW 221020Z 12012KT 080V150 CAVOK 24/08 Q1013 NOSIG

Decode

TAF

TAF EDDW 220500Z 2206/2306 08006KT CAVOK BECMG 2207/2209 10011KT PROB30 TEMPO 2213/2218 -TSRA SCT050CB BECMG 2215/2218 07006KT

Decode

Destination Runways

ID Width Length Bearing (true) Bearing (mag) Surface Threshold Offset Overrun Length
05 75 ft / 23 m 2,298 ft / 700 m 51.18° 48.72° Asphalt 0 ft / 0 m 0 ft / 0 m
09 151 ft / 46 m 8,616 ft / 2,626 m 87.78° 85.32° Asphalt 945 ft / 288 m 0 ft / 0 m
23 75 ft / 23 m 2,298 ft / 700 m 231.19° 228.73° Asphalt 0 ft / 0 m 0 ft / 0 m
27 151 ft / 46 m 8,616 ft / 2,626 m 267.82° 265.36° Asphalt 984 ft / 300 m 0 ft / 0 m

Approach Navaids

Runway Type Ident Frequency Range Bearing (true) Bearing (mag) Slope Elevation
09 Localiser IBRE 110.30 MHz 18 nm / 33 km 87.77° 85.31° - 13 ft / 4 m (AMSL)
09 Glidescope IBRE 110.30 MHz 10 nm / 19 km 87.80° 85.34° 3.00° 13 ft / 4 m (AMSL)
27 Localiser IBRW 110.90 MHz 18 nm / 33 km 267.87° 265.41° - 14 ft / 4 m (AMSL)
27 Glidescope IBRW 110.90 MHz 10 nm / 19 km 267.80° 265.34° 3.00° 14 ft / 4 m (AMSL)

Popular Alternatives